sensor_id;sensor_type;location;lat;lon;timestamp;P1;durP1;ratioP1;P2;durP2;ratioP2
3561;SDS011;1795;52.074;4.754;2023-02-15T00:02:04;54.10;;;36.67;;
3561;SDS011;1795;52.074;4.754;2023-02-15T00:04:34;51.80;;;34.63;;
3561;SDS011;1795;52.074;4.754;2023-02-15T00:07:18;54.85;;;37.08;;
3561;SDS011;1795;52.074;4.754;2023-02-15T00:09:46;52.93;;;34.40;;
3561;SDS011;1795;52.074;4.754;2023-02-15T00:12:15;52.53;;;34.90;;
3561;SDS011;1795;52.074;4.754;2023-02-15T00:14:43;55.38;;;35.40;;
3561;SDS011;1795;52.074;4.754;2023-02-15T00:17:11;53.00;;;34.60;;
3561;SDS011;1795;52.074;4.754;2023-02-15T00:19:40;57.28;;;36.92;;
3561;SDS011;1795;52.074;4.754;2023-02-15T00:22:08;55.50;;;36.40;;
3561;SDS011;1795;52.074;4.754;2023-02-15T00:24:36;53.53;;;37.00;;
3561;SDS011;1795;52.074;4.754;2023-02-15T00:27:04;56.17;;;34.97;;
3561;SDS011;1795;52.074;4.754;2023-02-15T00:29:32;54.35;;;35.95;;
3561;SDS011;1795;52.074;4.754;2023-02-15T00:32:00;58.63;;;37.33;;
3561;SDS011;1795;52.074;4.754;2023-02-15T00:34:28;58.28;;;35.88;;
3561;SDS011;1795;52.074;4.754;2023-02-15T00:36:58;51.10;;;34.70;;
3561;SDS011;1795;52.074;4.754;2023-02-15T00:39:26;54.22;;;36.03;;
3561;SDS011;1795;52.074;4.754;2023-02-15T00:41:55;52.10;;;34.77;;
3561;SDS011;1795;52.074;4.754;2023-02-15T00:44:23;49.87;;;32.63;;
3561;SDS011;1795;52.074;4.754;2023-02-15T00:46:51;49.50;;;32.00;;
3561;SDS011;1795;52.074;4.754;2023-02-15T00:49:19;48.85;;;30.90;;
3561;SDS011;1795;52.074;4.754;2023-02-15T00:51:47;45.70;;;30.80;;
3561;SDS011;1795;52.074;4.754;2023-02-15T00:54:16;43.22;;;29.85;;
3561;SDS011;1795;52.074;4.754;2023-02-15T00:56:44;42.60;;;30.35;;
3561;SDS011;1795;52.074;4.754;2023-02-15T00:59:12;42.95;;;28.33;;
3561;SDS011;1795;52.074;4.754;2023-02-15T01:01:40;38.87;;;27.53;;
3561;SDS011;1795;52.074;4.754;2023-02-15T01:04:08;38.30;;;26.73;;
3561;SDS011;1795;52.074;4.754;2023-02-15T01:06:36;41.10;;;27.00;;
3561;SDS011;1795;52.074;4.754;2023-02-15T01:09:04;36.50;;;24.98;;
3561;SDS011;1795;52.074;4.754;2023-02-15T01:11:34;33.08;;;24.10;;
3561;SDS011;1795;52.074;4.754;2023-02-15T01:14:02;31.33;;;22.40;;
3561;SDS011;1795;52.074;4.754;2023-02-15T01:16:31;31.73;;;23.52;;
3561;SDS011;1795;52.074;4.754;2023-02-15T01:18:59;31.08;;;22.42;;
3561;SDS011;1795;52.074;4.754;2023-02-15T01:21:28;30.13;;;21.52;;
3561;SDS011;1795;52.074;4.754;2023-02-15T01:23:57;31.83;;;21.38;;
3561;SDS011;1795;52.074;4.754;2023-02-15T01:26:25;30.57;;;21.87;;
3561;SDS011;1795;52.074;4.754;2023-02-15T01:28:54;27.42;;;20.88;;
3561;SDS011;1795;52.074;4.754;2023-02-15T01:31:23;26.92;;;20.83;;
3561;SDS011;1795;52.074;4.754;2023-02-15T01:33:52;25.77;;;20.33;;
3561;SDS011;1795;52.074;4.754;2023-02-15T01:36:20;28.23;;;20.83;;
3561;SDS011;1795;52.074;4.754;2023-02-15T01:38:48;27.08;;;19.70;;
3561;SDS011;1795;52.074;4.754;2023-02-15T01:41:16;28.00;;;21.23;;
3561;SDS011;1795;52.074;4.754;2023-02-15T01:43:49;28.75;;;20.77;;
3561;SDS011;1795;52.074;4.754;2023-02-15T01:46:22;30.90;;;21.77;;
3561;SDS011;1795;52.074;4.754;2023-02-15T01:48:57;25.52;;;20.23;;
3561;SDS011;1795;52.074;4.754;2023-02-15T01:51:29;25.17;;;18.98;;
3561;SDS011;1795;52.074;4.754;2023-02-15T01:54:01;28.83;;;20.77;;
3561;SDS011;1795;52.074;4.754;2023-02-15T01:56:33;29.23;;;21.15;;
3561;SDS011;1795;52.074;4.754;2023-02-15T01:59:06;31.30;;;22.00;;
3561;SDS011;1795;52.074;4.754;2023-02-15T02:01:37;31.27;;;22.47;;
3561;SDS011;1795;52.074;4.754;2023-02-15T02:04:08;29.70;;;21.57;;
3561;SDS011;1795;52.074;4.754;2023-02-15T02:06:42;31.87;;;23.23;;
3561;SDS011;1795;52.074;4.754;2023-02-15T02:09:13;32.42;;;22.63;;
3561;SDS011;1795;52.074;4.754;2023-02-15T02:11:41;31.95;;;23.50;;
3561;SDS011;1795;52.074;4.754;2023-02-15T02:14:13;34.90;;;23.80;;
3561;SDS011;1795;52.074;4.754;2023-02-15T02:16:45;36.13;;;25.08;;
3561;SDS011;1795;52.074;4.754;2023-02-15T02:19:45;34.53;;;23.17;;
3561;SDS011;1795;52.074;4.754;2023-02-15T02:22:40;33.93;;;23.40;;
3561;SDS011;1795;52.074;4.754;2023-02-15T02:25:35;37.88;;;24.20;;
3561;SDS011;1795;52.074;4.754;2023-02-15T02:28:31;34.93;;;23.60;;
3561;SDS011;1795;52.074;4.754;2023-02-15T02:31:23;33.42;;;24.35;;
3561;SDS011;1795;52.074;4.754;2023-02-15T02:34:07;35.67;;;24.85;;
3561;SDS011;1795;52.074;4.754;2023-02-15T02:36:41;31.67;;;23.55;;
3561;SDS011;1795;52.074;4.754;2023-02-15T02:39:21;32.83;;;23.58;;
3561;SDS011;1795;52.074;4.754;2023-02-15T02:41:56;33.33;;;24.13;;
3561;SDS011;1795;52.074;4.754;2023-02-15T02:44:31;33.55;;;23.15;;
3561;SDS011;1795;52.074;4.754;2023-02-15T02:47:09;36.83;;;25.07;;
3561;SDS011;1795;52.074;4.754;2023-02-15T02:49:44;37.03;;;24.13;;
3561;SDS011;1795;52.074;4.754;2023-02-15T02:55:05;34.53;;;24.00;;
3561;SDS011;1795;52.074;4.754;2023-02-15T02:57:38;37.05;;;23.48;;
3561;SDS011;1795;52.074;4.754;2023-02-15T03:00:15;36.42;;;24.95;;
3561;SDS011;1795;52.074;4.754;2023-02-15T03:02:44;36.07;;;25.10;;
3561;SDS011;1795;52.074;4.754;2023-02-15T03:05:18;35.60;;;25.40;;
3561;SDS011;1795;52.074;4.754;2023-02-15T03:07:51;37.90;;;25.50;;
3561;SDS011;1795;52.074;4.754;2023-02-15T03:10:21;34.28;;;23.83;;
3561;SDS011;1795;52.074;4.754;2023-02-15T03:12:50;37.05;;;24.83;;
3561;SDS011;1795;52.074;4.754;2023-02-15T03:15:20;37.92;;;24.08;;
3561;SDS011;1795;52.074;4.754;2023-02-15T03:17:52;38.13;;;25.67;;
3561;SDS011;1795;52.074;4.754;2023-02-15T03:20:25;34.08;;;24.15;;
3561;SDS011;1795;52.074;4.754;2023-02-15T03:22:58;37.42;;;25.05;;
3561;SDS011;1795;52.074;4.754;2023-02-15T03:25:30;34.72;;;23.40;;
3561;SDS011;1795;52.074;4.754;2023-02-15T03:28:01;37.78;;;25.20;;
3561;SDS011;1795;52.074;4.754;2023-02-15T03:30:33;38.03;;;24.95;;
3561;SDS011;1795;52.074;4.754;2023-02-15T03:33:03;37.55;;;24.80;;
3561;SDS011;1795;52.074;4.754;2023-02-15T03:35:36;38.85;;;26.20;;
3561;SDS011;1795;52.074;4.754;2023-02-15T03:38:11;37.95;;;24.30;;
3561;SDS011;1795;52.074;4.754;2023-02-15T03:40:43;38.17;;;23.50;;
3561;SDS011;1795;52.074;4.754;2023-02-15T03:43:32;34.70;;;23.98;;
3561;SDS011;1795;52.074;4.754;2023-02-15T03:46:08;36.45;;;24.30;;
3561;SDS011;1795;52.074;4.754;2023-02-15T03:48:40;32.85;;;23.13;;
3561;SDS011;1795;52.074;4.754;2023-02-15T03:51:14;39.40;;;24.63;;
3561;SDS011;1795;52.074;4.754;2023-02-15T03:54:00;33.88;;;23.73;;
3561;SDS011;1795;52.074;4.754;2023-02-15T03:56:31;39.35;;;25.27;;
3561;SDS011;1795;52.074;4.754;2023-02-15T03:59:02;38.30;;;24.85;;
3561;SDS011;1795;52.074;4.754;2023-02-15T04:01:49;35.50;;;24.45;;
3561;SDS011;1795;52.074;4.754;2023-02-15T04:04:33;37.00;;;25.70;;
3561;SDS011;1795;52.074;4.754;2023-02-15T04:07:04;37.30;;;23.63;;
3561;SDS011;1795;52.074;4.754;2023-02-15T04:09:34;37.27;;;24.83;;
3561;SDS011;1795;52.074;4.754;2023-02-15T04:12:20;38.25;;;25.40;;
3561;SDS011;1795;52.074;4.754;2023-02-15T04:14:48;34.40;;;23.92;;
3561;SDS011;1795;52.074;4.754;2023-02-15T04:17:35;36.70;;;24.70;;
3561;SDS011;1795;52.074;4.754;2023-02-15T04:20:03;39.83;;;25.95;;
3561;SDS011;1795;52.074;4.754;2023-02-15T04:22:51;36.55;;;24.88;;
3561;SDS011;1795;52.074;4.754;2023-02-15T04:25:37;39.28;;;26.48;;
3561;SDS011;1795;52.074;4.754;2023-02-15T04:28:06;37.28;;;25.67;;
3561;SDS011;1795;52.074;4.754;2023-02-15T04:30:34;41.65;;;25.63;;
3561;SDS011;1795;52.074;4.754;2023-02-15T04:33:02;37.33;;;25.42;;
3561;SDS011;1795;52.074;4.754;2023-02-15T04:35:30;37.88;;;25.88;;
3561;SDS011;1795;52.074;4.754;2023-02-15T04:38:01;37.28;;;26.52;;
3561;SDS011;1795;52.074;4.754;2023-02-15T04:40:29;43.33;;;27.67;;
3561;SDS011;1795;52.074;4.754;2023-02-15T04:42:57;38.13;;;25.98;;
3561;SDS011;1795;52.074;4.754;2023-02-15T04:45:25;37.90;;;24.83;;
3561;SDS011;1795;52.074;4.754;2023-02-15T04:47:53;39.83;;;26.48;;
3561;SDS011;1795;52.074;4.754;2023-02-15T04:50:21;41.17;;;26.95;;
3561;SDS011;1795;52.074;4.754;2023-02-15T04:52:49;41.53;;;27.70;;
3561;SDS011;1795;52.074;4.754;2023-02-15T04:55:19;41.88;;;27.20;;
3561;SDS011;1795;52.074;4.754;2023-02-15T04:57:47;42.28;;;27.02;;
3561;SDS011;1795;52.074;4.754;2023-02-15T05:00:15;39.70;;;27.48;;
3561;SDS011;1795;52.074;4.754;2023-02-15T05:02:43;41.27;;;26.50;;
3561;SDS011;1795;52.074;4.754;2023-02-15T05:05:11;42.80;;;26.50;;
3561;SDS011;1795;52.074;4.754;2023-02-15T05:07:41;44.47;;;28.33;;
3561;SDS011;1795;52.074;4.754;2023-02-15T05:10:09;40.17;;;27.27;;
3561;SDS011;1795;52.074;4.754;2023-02-15T05:12:38;41.28;;;26.83;;
3561;SDS011;1795;52.074;4.754;2023-02-15T05:15:07;41.88;;;26.95;;
3561;SDS011;1795;52.074;4.754;2023-02-15T05:17:35;38.60;;;25.63;;
3561;SDS011;1795;52.074;4.754;2023-02-15T05:20:04;43.58;;;27.20;;
3561;SDS011;1795;52.074;4.754;2023-02-15T05:22:33;38.72;;;26.35;;
3561;SDS011;1795;52.074;4.754;2023-02-15T05:25:01;42.08;;;27.77;;
3561;SDS011;1795;52.074;4.754;2023-02-15T05:27:47;43.58;;;25.65;;
3561;SDS011;1795;52.074;4.754;2023-02-15T05:30:33;40.47;;;26.10;;
3561;SDS011;1795;52.074;4.754;2023-02-15T05:33:01;42.90;;;27.85;;
3561;SDS011;1795;52.074;4.754;2023-02-15T05:35:31;42.65;;;27.52;;
3561;SDS011;1795;52.074;4.754;2023-02-15T05:37:59;41.50;;;26.40;;
3561;SDS011;1795;52.074;4.754;2023-02-15T05:40:27;40.70;;;26.73;;
3561;SDS011;1795;52.074;4.754;2023-02-15T05:42:56;39.88;;;26.75;;
3561;SDS011;1795;52.074;4.754;2023-02-15T05:45:25;42.15;;;27.35;;
3561;SDS011;1795;52.074;4.754;2023-02-15T05:47:53;41.80;;;27.88;;
3561;SDS011;1795;52.074;4.754;2023-02-15T05:50:21;38.50;;;25.77;;
3561;SDS011;1795;52.074;4.754;2023-02-15T05:52:49;38.83;;;26.88;;
3561;SDS011;1795;52.074;4.754;2023-02-15T05:55:17;40.83;;;27.30;;
3561;SDS011;1795;52.074;4.754;2023-02-15T05:57:45;39.83;;;26.25;;
3561;SDS011;1795;52.074;4.754;2023-02-15T06:00:15;39.90;;;26.08;;
3561;SDS011;1795;52.074;4.754;2023-02-15T06:02:44;40.40;;;28.10;;
3561;SDS011;1795;52.074;4.754;2023-02-15T06:05:12;41.40;;;26.65;;
3561;SDS011;1795;52.074;4.754;2023-02-15T06:07:42;42.58;;;26.33;;
3561;SDS011;1795;52.074;4.754;2023-02-15T06:10:10;38.78;;;27.05;;
3561;SDS011;1795;52.074;4.754;2023-02-15T06:12:39;43.17;;;26.40;;
3561;SDS011;1795;52.074;4.754;2023-02-15T06:15:07;43.30;;;29.02;;
3561;SDS011;1795;52.074;4.754;2023-02-15T06:17:37;43.22;;;28.23;;
3561;SDS011;1795;52.074;4.754;2023-02-15T06:20:05;39.72;;;27.17;;
3561;SDS011;1795;52.074;4.754;2023-02-15T06:22:34;44.58;;;27.88;;
3561;SDS011;1795;52.074;4.754;2023-02-15T06:25:02;46.85;;;28.95;;
3561;SDS011;1795;52.074;4.754;2023-02-15T06:27:31;45.65;;;26.50;;
3561;SDS011;1795;52.074;4.754;2023-02-15T06:29:59;36.42;;;25.63;;
3561;SDS011;1795;52.074;4.754;2023-02-15T06:32:27;40.50;;;26.30;;
3561;SDS011;1795;52.074;4.754;2023-02-15T06:34:56;43.03;;;26.40;;
3561;SDS011;1795;52.074;4.754;2023-02-15T06:37:24;42.58;;;26.85;;
3561;SDS011;1795;52.074;4.754;2023-02-15T06:39:52;42.88;;;26.60;;
3561;SDS011;1795;52.074;4.754;2023-02-15T06:42:20;41.80;;;26.30;;
3561;SDS011;1795;52.074;4.754;2023-02-15T06:44:48;40.57;;;25.50;;
3561;SDS011;1795;52.074;4.754;2023-02-15T06:47:16;39.63;;;26.52;;
3561;SDS011;1795;52.074;4.754;2023-02-15T06:49:44;43.40;;;26.95;;
3561;SDS011;1795;52.074;4.754;2023-02-15T06:52:14;41.13;;;26.75;;
3561;SDS011;1795;52.074;4.754;2023-02-15T06:54:42;41.42;;;25.83;;
3561;SDS011;1795;52.074;4.754;2023-02-15T06:57:10;41.17;;;26.75;;
3561;SDS011;1795;52.074;4.754;2023-02-15T06:59:38;42.30;;;27.30;;
3561;SDS011;1795;52.074;4.754;2023-02-15T07:02:06;45.13;;;28.73;;
3561;SDS011;1795;52.074;4.754;2023-02-15T07:04:35;38.67;;;26.50;;
3561;SDS011;1795;52.074;4.754;2023-02-15T07:07:03;43.92;;;27.45;;
3561;SDS011;1795;52.074;4.754;2023-02-15T07:09:36;46.03;;;28.20;;
3561;SDS011;1795;52.074;4.754;2023-02-15T07:12:04;45.80;;;28.25;;
3561;SDS011;1795;52.074;4.754;2023-02-15T07:14:50;41.70;;;27.02;;
3561;SDS011;1795;52.074;4.754;2023-02-15T07:17:18;42.88;;;28.33;;
3561;SDS011;1795;52.074;4.754;2023-02-15T07:20:01;46.63;;;29.75;;
3561;SDS011;1795;52.074;4.754;2023-02-15T07:22:30;43.80;;;27.73;;
3561;SDS011;1795;52.074;4.754;2023-02-15T07:25:01;47.15;;;28.17;;
3561;SDS011;1795;52.074;4.754;2023-02-15T07:27:30;47.90;;;29.25;;
3561;SDS011;1795;52.074;4.754;2023-02-15T07:29:58;46.00;;;28.70;;
3561;SDS011;1795;52.074;4.754;2023-02-15T07:32:27;44.00;;;27.77;;
3561;SDS011;1795;52.074;4.754;2023-02-15T07:34:56;49.67;;;30.50;;
3561;SDS011;1795;52.074;4.754;2023-02-15T07:37:25;46.72;;;30.25;;
3561;SDS011;1795;52.074;4.754;2023-02-15T07:39:53;46.70;;;29.20;;
3561;SDS011;1795;52.074;4.754;2023-02-15T07:42:23;47.17;;;29.55;;
3561;SDS011;1795;52.074;4.754;2023-02-15T07:44:51;50.38;;;30.92;;
3561;SDS011;1795;52.074;4.754;2023-02-15T07:47:19;47.50;;;30.20;;
3561;SDS011;1795;52.074;4.754;2023-02-15T07:49:47;50.78;;;30.38;;
3561;SDS011;1795;52.074;4.754;2023-02-15T07:52:16;49.57;;;30.13;;
3561;SDS011;1795;52.074;4.754;2023-02-15T07:54:44;46.13;;;28.47;;
3561;SDS011;1795;52.074;4.754;2023-02-15T07:57:12;46.72;;;29.00;;
3561;SDS011;1795;52.074;4.754;2023-02-15T07:59:41;53.10;;;31.10;;
3561;SDS011;1795;52.074;4.754;2023-02-15T08:02:09;47.88;;;29.70;;
3561;SDS011;1795;52.074;4.754;2023-02-15T08:04:38;49.17;;;30.73;;
3561;SDS011;1795;52.074;4.754;2023-02-15T08:07:06;53.30;;;32.08;;
3561;SDS011;1795;52.074;4.754;2023-02-15T08:09:34;49.45;;;30.33;;
3561;SDS011;1795;52.074;4.754;2023-02-15T08:12:02;48.63;;;29.77;;
3561;SDS011;1795;52.074;4.754;2023-02-15T08:14:31;49.10;;;30.20;;
3561;SDS011;1795;52.074;4.754;2023-02-15T08:17:01;48.80;;;31.52;;
3561;SDS011;1795;52.074;4.754;2023-02-15T08:19:31;54.42;;;31.85;;
3561;SDS011;1795;52.074;4.754;2023-02-15T08:22:01;46.90;;;30.10;;
3561;SDS011;1795;52.074;4.754;2023-02-15T08:24:31;46.00;;;29.63;;
3561;SDS011;1795;52.074;4.754;2023-02-15T08:27:00;51.30;;;32.05;;
3561;SDS011;1795;52.074;4.754;2023-02-15T08:29:32;49.70;;;31.52;;
3561;SDS011;1795;52.074;4.754;2023-02-15T08:32:03;45.17;;;29.55;;
3561;SDS011;1795;52.074;4.754;2023-02-15T08:34:33;51.67;;;31.85;;
3561;SDS011;1795;52.074;4.754;2023-02-15T08:37:02;48.30;;;29.73;;
3561;SDS011;1795;52.074;4.754;2023-02-15T08:39:32;51.08;;;31.48;;
3561;SDS011;1795;52.074;4.754;2023-02-15T08:42:01;46.45;;;29.38;;
3561;SDS011;1795;52.074;4.754;2023-02-15T08:44:29;56.00;;;32.35;;
3561;SDS011;1795;52.074;4.754;2023-02-15T08:46:57;52.55;;;31.38;;
3561;SDS011;1795;52.074;4.754;2023-02-15T08:49:31;54.57;;;33.17;;
3561;SDS011;1795;52.074;4.754;2023-02-15T08:52:00;52.85;;;32.53;;
3561;SDS011;1795;52.074;4.754;2023-02-15T08:54:28;49.70;;;32.42;;
3561;SDS011;1795;52.074;4.754;2023-02-15T08:56:56;51.22;;;32.58;;
3561;SDS011;1795;52.074;4.754;2023-02-15T08:59:24;54.03;;;33.03;;
3561;SDS011;1795;52.074;4.754;2023-02-15T09:01:53;52.33;;;33.90;;
3561;SDS011;1795;52.074;4.754;2023-02-15T09:04:21;60.38;;;35.65;;
3561;SDS011;1795;52.074;4.754;2023-02-15T09:06:51;61.08;;;35.95;;
3561;SDS011;1795;52.074;4.754;2023-02-15T09:09:19;58.38;;;36.40;;
3561;SDS011;1795;52.074;4.754;2023-02-15T09:11:48;64.20;;;37.40;;
3561;SDS011;1795;52.074;4.754;2023-02-15T09:14:26;60.17;;;36.58;;
3561;SDS011;1795;52.074;4.754;2023-02-15T09:16:54;62.00;;;36.67;;
3561;SDS011;1795;52.074;4.754;2023-02-15T09:19:23;75.28;;;39.97;;
3561;SDS011;1795;52.074;4.754;2023-02-15T09:21:53;66.60;;;38.88;;
3561;SDS011;1795;52.074;4.754;2023-02-15T09:24:21;68.03;;;38.78;;
3561;SDS011;1795;52.074;4.754;2023-02-15T09:26:49;70.18;;;38.80;;
3561;SDS011;1795;52.074;4.754;2023-02-15T09:29:17;68.45;;;39.38;;
3561;SDS011;1795;52.074;4.754;2023-02-15T09:31:46;64.45;;;38.97;;
3561;SDS011;1795;52.074;4.754;2023-02-15T09:34:17;70.03;;;38.45;;
3561;SDS011;1795;52.074;4.754;2023-02-15T09:36:47;67.82;;;39.55;;
3561;SDS011;1795;52.074;4.754;2023-02-15T09:39:18;67.07;;;41.70;;
3561;SDS011;1795;52.074;4.754;2023-02-15T09:41:54;65.30;;;40.08;;
3561;SDS011;1795;52.074;4.754;2023-02-15T09:44:38;66.60;;;39.05;;
3561;SDS011;1795;52.074;4.754;2023-02-15T09:47:46;69.88;;;41.45;;
3561;SDS011;1795;52.074;4.754;2023-02-15T09:50:25;74.38;;;41.00;;
3561;SDS011;1795;52.074;4.754;2023-02-15T09:53:04;72.53;;;43.28;;
3561;SDS011;1795;52.074;4.754;2023-02-15T09:55:54;76.65;;;44.10;;
3561;SDS011;1795;52.074;4.754;2023-02-15T09:58:28;77.55;;;44.83;;
3561;SDS011;1795;52.074;4.754;2023-02-15T10:01:06;78.32;;;45.72;;
3561;SDS011;1795;52.074;4.754;2023-02-15T10:03:50;76.55;;;45.78;;
3561;SDS011;1795;52.074;4.754;2023-02-15T10:06:31;80.88;;;46.10;;
3561;SDS011;1795;52.074;4.754;2023-02-15T10:09:14;81.65;;;46.00;;
3561;SDS011;1795;52.074;4.754;2023-02-15T10:12:04;73.30;;;46.63;;
3561;SDS011;1795;52.074;4.754;2023-02-15T10:14:50;82.72;;;47.90;;
3561;SDS011;1795;52.074;4.754;2023-02-15T10:17:37;79.95;;;46.88;;
3561;SDS011;1795;52.074;4.754;2023-02-15T10:20:17;77.25;;;46.38;;
3561;SDS011;1795;52.074;4.754;2023-02-15T10:23:06;80.50;;;46.63;;
3561;SDS011;1795;52.074;4.754;2023-02-15T10:25:43;79.68;;;47.83;;
3561;SDS011;1795;52.074;4.754;2023-02-15T10:28:19;84.30;;;48.10;;
3561;SDS011;1795;52.074;4.754;2023-02-15T10:30:50;83.05;;;45.80;;
3561;SDS011;1795;52.074;4.754;2023-02-15T10:33:25;85.72;;;48.35;;
3561;SDS011;1795;52.074;4.754;2023-02-15T10:36:07;80.30;;;47.55;;
3561;SDS011;1795;52.074;4.754;2023-02-15T10:38:51;84.20;;;47.70;;
3561;SDS011;1795;52.074;4.754;2023-02-15T10:41:31;80.50;;;46.10;;
3561;SDS011;1795;52.074;4.754;2023-02-15T10:44:13;85.53;;;47.95;;
3561;SDS011;1795;52.074;4.754;2023-02-15T10:46:56;79.85;;;48.95;;
3561;SDS011;1795;52.074;4.754;2023-02-15T10:49:42;83.70;;;50.15;;
3561;SDS011;1795;52.074;4.754;2023-02-15T10:52:21;79.78;;;47.22;;
3561;SDS011;1795;52.074;4.754;2023-02-15T10:55:02;81.38;;;49.08;;
3561;SDS011;1795;52.074;4.754;2023-02-15T10:57:41;84.10;;;48.80;;
3561;SDS011;1795;52.074;4.754;2023-02-15T11:00:21;80.53;;;48.20;;
3561;SDS011;1795;52.074;4.754;2023-02-15T11:03:00;81.95;;;49.20;;
3561;SDS011;1795;52.074;4.754;2023-02-15T11:05:41;81.93;;;47.92;;
3561;SDS011;1795;52.074;4.754;2023-02-15T11:08:21;80.28;;;46.25;;
3561;SDS011;1795;52.074;4.754;2023-02-15T11:10:52;79.73;;;48.10;;
3561;SDS011;1795;52.074;4.754;2023-02-15T11:13:25;78.38;;;47.70;;
3561;SDS011;1795;52.074;4.754;2023-02-15T11:16:02;82.47;;;49.17;;
3561;SDS011;1795;52.074;4.754;2023-02-15T11:18:33;77.22;;;46.85;;
3561;SDS011;1795;52.074;4.754;2023-02-15T11:21:07;84.07;;;50.75;;
3561;SDS011;1795;52.074;4.754;2023-02-15T11:23:40;81.60;;;48.75;;
3561;SDS011;1795;52.074;4.754;2023-02-15T11:26:14;87.40;;;48.50;;
3561;SDS011;1795;52.074;4.754;2023-02-15T11:28:47;81.43;;;47.90;;
3561;SDS011;1795;52.074;4.754;2023-02-15T11:31:21;82.60;;;50.05;;
3561;SDS011;1795;52.074;4.754;2023-02-15T11:33:52;81.22;;;49.90;;
3561;SDS011;1795;52.074;4.754;2023-02-15T11:36:25;85.80;;;50.10;;
3561;SDS011;1795;52.074;4.754;2023-02-15T11:38:56;87.88;;;51.40;;
3561;SDS011;1795;52.074;4.754;2023-02-15T11:41:31;85.05;;;51.78;;
3561;SDS011;1795;52.074;4.754;2023-02-15T11:44:05;88.32;;;51.15;;
3561;SDS011;1795;52.074;4.754;2023-02-15T11:46:40;87.57;;;51.58;;
3561;SDS011;1795;52.074;4.754;2023-02-15T11:49:12;84.22;;;50.38;;
3561;SDS011;1795;52.074;4.754;2023-02-15T11:51:50;84.35;;;51.50;;
3561;SDS011;1795;52.074;4.754;2023-02-15T11:54:19;80.57;;;51.00;;
3561;SDS011;1795;52.074;4.754;2023-02-15T11:56:53;84.15;;;52.78;;
3561;SDS011;1795;52.074;4.754;2023-02-15T11:59:24;92.00;;;53.95;;
3561;SDS011;1795;52.074;4.754;2023-02-15T12:01:58;94.30;;;53.58;;
3561;SDS011;1795;52.074;4.754;2023-02-15T12:04:28;87.72;;;52.83;;
3561;SDS011;1795;52.074;4.754;2023-02-15T12:07:01;89.13;;;51.90;;
3561;SDS011;1795;52.074;4.754;2023-02-15T12:09:38;97.65;;;54.25;;
3561;SDS011;1795;52.074;4.754;2023-02-15T12:12:20;92.22;;;53.15;;
3561;SDS011;1795;52.074;4.754;2023-02-15T12:14:52;86.65;;;51.67;;
3561;SDS011;1795;52.074;4.754;2023-02-15T12:17:23;98.90;;;56.63;;
3561;SDS011;1795;52.074;4.754;2023-02-15T12:19:54;88.25;;;52.60;;
3561;SDS011;1795;52.074;4.754;2023-02-15T12:22:24;97.15;;;54.03;;
3561;SDS011;1795;52.074;4.754;2023-02-15T12:24:55;87.32;;;53.10;;
3561;SDS011;1795;52.074;4.754;2023-02-15T12:27:27;86.18;;;55.17;;
3561;SDS011;1795;52.074;4.754;2023-02-15T12:29:57;91.20;;;54.17;;
3561;SDS011;1795;52.074;4.754;2023-02-15T12:32:31;92.17;;;52.57;;
3561;SDS011;1795;52.074;4.754;2023-02-15T12:35:06;86.70;;;53.30;;
3561;SDS011;1795;52.074;4.754;2023-02-15T12:37:40;88.20;;;52.33;;
3561;SDS011;1795;52.074;4.754;2023-02-15T12:40:21;87.07;;;52.88;;
3561;SDS011;1795;52.074;4.754;2023-02-15T12:42:52;82.43;;;50.00;;
3561;SDS011;1795;52.074;4.754;2023-02-15T12:45:21;84.53;;;51.97;;
3561;SDS011;1795;52.074;4.754;2023-02-15T12:48:09;79.93;;;51.13;;
3561;SDS011;1795;52.074;4.754;2023-02-15T12:50:48;78.23;;;51.30;;
3561;SDS011;1795;52.074;4.754;2023-02-15T12:53:21;79.95;;;49.35;;
3561;SDS011;1795;52.074;4.754;2023-02-15T12:55:57;84.37;;;51.20;;
3561;SDS011;1795;52.074;4.754;2023-02-15T12:58:26;85.40;;;50.65;;
3561;SDS011;1795;52.074;4.754;2023-02-15T13:01:04;76.38;;;47.65;;
3561;SDS011;1795;52.074;4.754;2023-02-15T13:03:55;81.78;;;49.08;;
3561;SDS011;1795;52.074;4.754;2023-02-15T13:06:25;76.07;;;46.03;;
3561;SDS011;1795;52.074;4.754;2023-02-15T13:08:54;77.78;;;46.10;;
3561;SDS011;1795;52.074;4.754;2023-02-15T13:11:25;77.57;;;48.97;;
3561;SDS011;1795;52.074;4.754;2023-02-15T13:13:58;78.57;;;47.25;;
3561;SDS011;1795;52.074;4.754;2023-02-15T13:16:28;84.10;;;48.85;;
3561;SDS011;1795;52.074;4.754;2023-02-15T13:19:02;76.35;;;47.70;;
3561;SDS011;1795;52.074;4.754;2023-02-15T13:21:34;73.80;;;46.23;;
3561;SDS011;1795;52.074;4.754;2023-02-15T13:24:06;74.03;;;45.53;;
3561;SDS011;1795;52.074;4.754;2023-02-15T13:26:48;72.68;;;47.33;;
3561;SDS011;1795;52.074;4.754;2023-02-15T13:29:17;81.93;;;47.75;;
3561;SDS011;1795;52.074;4.754;2023-02-15T13:31:49;73.50;;;45.78;;
3561;SDS011;1795;52.074;4.754;2023-02-15T13:34:22;76.15;;;47.70;;
3561;SDS011;1795;52.074;4.754;2023-02-15T13:36:54;74.03;;;46.70;;
3561;SDS011;1795;52.074;4.754;2023-02-15T13:39:30;73.95;;;46.50;;
3561;SDS011;1795;52.074;4.754;2023-02-15T13:42:06;80.13;;;48.97;;
3561;SDS011;1795;52.074;4.754;2023-02-15T13:44:52;73.70;;;47.28;;
3561;SDS011;1795;52.074;4.754;2023-02-15T13:47:41;75.25;;;46.03;;
3561;SDS011;1795;52.074;4.754;2023-02-15T13:50:19;72.35;;;47.97;;
3561;SDS011;1795;52.074;4.754;2023-02-15T13:53:00;74.37;;;46.00;;
3561;SDS011;1795;52.074;4.754;2023-02-15T13:55:43;76.20;;;46.70;;
3561;SDS011;1795;52.074;4.754;2023-02-15T14:01:14;71.18;;;45.78;;
3561;SDS011;1795;52.074;4.754;2023-02-15T14:03:55;73.68;;;47.70;;
3561;SDS011;1795;52.074;4.754;2023-02-15T14:06:38;73.15;;;46.83;;
3561;SDS011;1795;52.074;4.754;2023-02-15T14:09:21;70.97;;;45.07;;
3561;SDS011;1795;52.074;4.754;2023-02-15T14:12:06;76.00;;;46.90;;
3561;SDS011;1795;52.074;4.754;2023-02-15T14:14:52;72.85;;;47.10;;
3561;SDS011;1795;52.074;4.754;2023-02-15T14:17:42;69.57;;;45.25;;
3561;SDS011;1795;52.074;4.754;2023-02-15T14:20:20;71.50;;;45.20;;
3561;SDS011;1795;52.074;4.754;2023-02-15T14:22:55;70.13;;;44.63;;
3561;SDS011;1795;52.074;4.754;2023-02-15T14:25:34;67.05;;;44.58;;
3561;SDS011;1795;52.074;4.754;2023-02-15T14:28:08;68.25;;;42.95;;
3561;SDS011;1795;52.074;4.754;2023-02-15T14:30:41;66.07;;;41.97;;
3561;SDS011;1795;52.074;4.754;2023-02-15T14:33:21;68.40;;;42.63;;
3561;SDS011;1795;52.074;4.754;2023-02-15T14:36:01;69.45;;;42.13;;
3561;SDS011;1795;52.074;4.754;2023-02-15T14:38:39;63.05;;;39.75;;
3561;SDS011;1795;52.074;4.754;2023-02-15T14:41:18;62.75;;;39.38;;
3561;SDS011;1795;52.074;4.754;2023-02-15T14:43:52;65.10;;;39.47;;
3561;SDS011;1795;52.074;4.754;2023-02-15T14:46:30;64.20;;;41.20;;
3561;SDS011;1795;52.074;4.754;2023-02-15T14:49:05;64.22;;;40.88;;
3561;SDS011;1795;52.074;4.754;2023-02-15T14:51:56;65.15;;;39.72;;
3561;SDS011;1795;52.074;4.754;2023-02-15T14:57:32;67.40;;;40.58;;
3561;SDS011;1795;52.074;4.754;2023-02-15T15:00:06;69.65;;;42.25;;
3561;SDS011;1795;52.074;4.754;2023-02-15T15:02:59;65.03;;;39.83;;
3561;SDS011;1795;52.074;4.754;2023-02-15T15:05:31;63.45;;;40.35;;
3561;SDS011;1795;52.074;4.754;2023-02-15T15:08:01;66.20;;;40.05;;
3561;SDS011;1795;52.074;4.754;2023-02-15T15:13:37;69.18;;;43.22;;
3561;SDS011;1795;52.074;4.754;2023-02-15T15:16:27;68.40;;;43.20;;
3561;SDS011;1795;52.074;4.754;2023-02-15T15:19:11;67.03;;;43.97;;
3561;SDS011;1795;52.074;4.754;2023-02-15T15:21:55;72.38;;;43.13;;
3561;SDS011;1795;52.074;4.754;2023-02-15T15:24:47;69.22;;;44.30;;
3561;SDS011;1795;52.074;4.754;2023-02-15T15:42:54;71.73;;;44.20;;
3561;SDS011;1795;52.074;4.754;2023-02-15T15:45:46;67.65;;;43.40;;
3561;SDS011;1795;52.074;4.754;2023-02-15T15:48:32;70.95;;;43.90;;
3561;SDS011;1795;52.074;4.754;2023-02-15T15:51:05;71.40;;;44.47;;
3561;SDS011;1795;52.074;4.754;2023-02-15T15:53:41;72.15;;;44.47;;